ENOA weather

Oseberg A Platform
Norway

Public forecast

Using degrees Celsius for public forecast. Weather courtesy of forecast.io.

METAR (pilot weather report)

Retrieved 2019/05/23 10:20 UTC (33 minutes ago):

ENOA 231020Z 12012KT 9999 FEW015 09/07 Q1002 W///S3

TAF (pilot weather forecast)

Retrieved 2019/05/23 09:57 UTC (56 minutes ago):

TAF TAF ENOA 230800Z 2309/2409 12020KT 9999 SCT010 BKN050 PROB30 TEMPO 2309/2322 SHRA BKN009 SCT018CB TEMPO 2322/2409 BKN009 BECMG 2402/2404 01020KT